Flight Track Log - Related Links

Times and Time Zones

All times are in EDT time to prevent confusion due to time zone crossing. See the N675MC flight status page for this flight to view local times or setup timezone preferences in your user account.

Time Position Orientation Groundspeed Altitude Reporting Facility
EDT Latitude Longitude Course Direction KTS MPH feet Rate Location/Type
Mon 10:12:33 AM 33.6539 -84.3758 10° North 409 471 2,500  Level Atlanta Center
Mon 10:13:33 AM 33.6814 -84.2983 67° East 281 323 5,100 2,700 Climbing Atlanta Center
Mon 10:14:33 AM 33.7128 -84.2161 65° Northeast 271 312 7,900 1,783 Climbing Atlanta Center
Mon 10:15:00 AM 33.9982 -84.3573 North  Level Estimated
Mon 10:15:51 AM 33.8000 -84.1833 17° North 284 327 9,200  Level Atlanta TRACON
Mon 10:16:00 AM 34.0886 -84.3396 North  Level Estimated
Mon 10:16:51 AM 33.8833 -84.2000 351° North 322 371 10,700  Level Atlanta TRACON
Mon 10:17:00 AM 34.1787 -84.3197 10° North  Level FlightAware Approximate
Mon 10:18:33 AM 34.0236 -84.2819 334° Northwest 347 399 14,100  Level Atlanta Center
Mon 10:19:33 AM 34.1175 -84.3122 345° North 336 387 14,200 1,300 Climbing Atlanta Center
Mon 10:20:33 AM 34.2133 -84.3428 345° North 348 400 16,700 2,100 Climbing Atlanta Center
Mon 10:21:33 AM 34.3136 -84.3708 347° North 358 412 18,400 1,800 Climbing Atlanta Center
Mon 10:22:33 AM 34.4011 -84.4014 344° North 369 425 20,300 1,300 Climbing Atlanta Center
Mon 10:23:33 AM 34.5097 -84.3867 North 383 441 21,000 300 Climbing Atlanta Center
Mon 10:24:33 AM 34.6267 -84.3544 13° North 406 467 20,900  Descending Atlanta Center
Mon 10:25:33 AM 34.7456 -84.3169 15° North 425 489 21,000 -650 Climbing Atlanta Center
Mon 10:26:33 AM 34.8606 -84.2817 14° North 430 495 19,600 -2,100 Descending Atlanta Center
Mon 10:27:33 AM 34.9733 -84.2567 10° North 419 482 16,800 -2,650 Descending Atlanta Center
Mon 10:28:33 AM 35.0797 -84.2267 13° North 404 465 14,300 -2,750 Descending Atlanta Center
Mon 10:29:33 AM 35.1800 -84.1964 14° North 382 440 11,300 -1,600 Descending Atlanta Center
Mon 10:30:33 AM 35.2717 -84.1761 10° North 359 413 11,100 -150 Descending Atlanta Center
Mon 10:31:33 AM 35.3553 -84.1508 14° North 325 374 11,000 -150 Descending Atlanta Center
Mon 10:32:33 AM 35.4344 -84.1306 12° North 304 350 10,800 -950 Descending Atlanta Center
Mon 10:33:33 AM 35.5139 -84.1078 13° North 291 335 9,100 -1,650 Descending Atlanta Center
Mon 10:34:33 AM 35.5764 -84.0542 35° Northeast 286 329 7,500 -1,300 Descending Atlanta Center
Mon 10:35:33 AM 35.6369 -83.9903 41° Northeast 273 314 6,500 -1,200 Descending Atlanta Center
Mon 10:36:33 AM 35.6931 -83.9339 39° Northeast 267 307 5,100 -1,300 Descending Atlanta Center
Mon 10:37:33 AM 35.7558 -83.8878 31° Northeast 262 302 3,900 -1,000 Descending Atlanta Center
Mon 10:38:33 AM 35.8203 -83.8594 20° North 248 285 3,100 -800 Descending Atlanta Center

Login

Don't have an account? Register now (free) for customized features, flight alerts, and more!